Terminal Aerodrome Forecast
Issued by NWS

Home | Current Version | Previous Version | Text Only | Print | Product List | Glossary On
Versions: 1 2 3 4 5 6 7 8 9 10 11 12 13
106
FTUS43 KMQT 092339
TAFIWD
TAF
KIWD 092339Z 1000/1024 32009G14KT 2SM -SHSN OVC014
      TEMPO 1000/1004 5SM -SHSN OVC020
     FM101900 33007KT 1 1/2SM -SHSN OVC011
     FM102200 33006KT 3SM -SHSN BKN022
      AMD LTD TO CLD VIS AND WIND=

USA.gov is the U.S. government's official web portal to all federal, state and local government web resources and services.